• Join FlightAware (Why Join?)
  • Login
  • US Flag 
11:30AM EDT


 

Airport Tracker/Info


-or-


 

Live Flight TrackerFlight Track Log ✈ UAL4422 ✈ 14-Apr-2013 ✈ KMAF - KIAH

Flight Track Log - Related Links

Times and Time Zones

All times are in EDT time to prevent confusion due to time zone crossing. See the UAL4422 flight status page for this flight to view local times or setup timezone preferences in your user account.

Time Position Orientation Groundspeed Altitude Reporting Facility
EDT Latitude Longitude Course Direction KTS MPH feet Rate Location/Type
06:24PM 31.9003 -102.2142 113° Southeast 254 292 8,400  Level Fort Worth Center
06:25PM 31.8619 -102.1242 117° Southeast 281 323 10,400 1,680 Climbing Fort Worth Center
06:26PM 31.8108 -102.0358 124° Southeast 308 354 11,800 1,140 Climbing Fort Worth Center
06:27PM 31.7558 -101.9403 124° Southeast 328 377 12,700 1,200 Climbing Fort Worth Center
06:28PM 31.5493 -101.0059 110° East  Level FlightAware Approximate
06:28PM 31.7033 -101.8375 121° Southeast 355 409 14,200  Level Fort Worth Center
06:29PM 31.5121 -100.8886 115° Southeast  Level FlightAware Approximate
06:29PM 31.6781 -101.7192 104° East 364 419 15,500  Level Fort Worth Center
06:30PM 31.6469 -101.5958 106° East 370 426 16,600 1,440 Climbing Fort Worth Center
06:31PM 31.6236 -101.4753 103° East 376 433 18,400 1,740 Climbing Fort Worth Center
06:32PM 31.5919 -101.3519 107° East 382 440 20,100 1,500 Climbing Fort Worth Center
06:33PM 31.5603 -101.2286 107° East 382 440 21,500 1,380 Climbing Fort Worth Center
06:34PM 31.5308 -101.1033 105° East 387 445 22,900 720 Climbing Fort Worth Center
06:35PM 31.4989 -100.9728 106° East 394 453 23,000  Climbing Fort Worth Center
06:37PM 31.4261 -100.6686 106° East 483 556 23,000  Level Houston Center
06:38PM 31.3894 -100.5147 106° East 491 565 23,000  Level Houston Center
06:40PM 31.3453 -100.3636 109° East 491 565 23,000 60 Level Houston Center
06:41PM 31.2939 -100.2147 112° Southeast 493 567 23,200 720 Climbing Houston Center
06:42PM 31.2456 -100.0744 112° Southeast 466 536 24,600 1,380 Climbing Houston Center
06:43PM 31.2008 -99.9439 112° Southeast 436 502 26,100 1,440 Climbing Houston Center
06:44PM 31.1581 -99.8189 112° Southeast 417 480 27,600 1,380 Climbing Houston Center
06:45PM 31.1183 -99.6742 108° East 394 453 29,000 660 Climbing Houston Center
06:46PM 31.1086 -99.5425 95° East 407 468 29,000  Level Houston Center
06:47PM 31.0986 -99.4047 95° East 424 488 29,000  Level Houston Center
06:48PM 31.0883 -99.2606 95° East 440 506 29,000  Level Houston Center
06:49PM 31.0756 -99.0994 95° East 449 517 29,000  Level Houston Center
06:50PM 31.0642 -98.9494 95° East 457 526 29,000  Level Houston Center
06:51PM 31.0517 -98.7986 95° East 462 532 29,000  Level Houston Center
06:52PM 31.0397 -98.6472 95° East 465 535 29,000  Level Houston Center
06:53PM 31.0275 -98.4933 95° East 470 541 29,000  Level Houston Center
06:54PM 31.0153 -98.3394 95° East 472 543 29,000  Level Houston Center
06:55PM 31.0022 -98.1867 96° East 471 542 29,000  Level Houston Center
06:56PM 30.9881 -98.0092 95° East 470 541 29,000  Level Houston Center
06:57PM 30.9744 -97.8567 96° East 468 539 29,000  Level Houston Center
06:58PM 30.9611 -97.7036 96° East 470 541 29,000  Level Houston Center
06:59PM 30.9478 -97.5528 96° East 466 536 29,000  Level Houston Center
07:00PM 30.9342 -97.4000 96° East 469 540 29,000  Level Houston Center
07:01PM 30.9203 -97.2419 96° East 472 543 29,000  Level Houston Center
07:02PM 30.9053 -97.0753 96° East 488 562 29,000  Level Houston Center
07:03PM 30.8906 -96.9214 96° East 475 547 29,000  Level Houston Center
07:04PM 30.8767 -96.7686 96° East 473 544 29,000 -1,260 Level Houston Center
07:05PM 30.8608 -96.6122 97° East 481 554 26,500 -2,460 Descending Houston Center
07:06PM 30.8464 -96.4600 96° East 472 543 24,000 -1,200 Descending Houston Center
07:07PM 30.8300 -96.3047 97° East 479 551 24,000 -780 Level Houston Center
07:08PM 30.7339 -96.1653 129° Southeast 479 551 22,500 -2,340 Descending Houston Center
07:09PM 30.6186 -96.1750 184° South 428 493 19,300 -3,240 Descending Houston Center
07:10PM 30.5881 -96.1869 199° South 383 441 18,400 -3,420 Descending Houston Center
07:10PM 30.5111 -96.1647 166° South 423 487 15,800 -3,360 Descending Houston Center
07:12PM 30.4281 -96.0717 136° Southeast 412 474 12,300 -2,340 Descending Houston Center
07:13PM 30.3442 -95.9956 142° Southeast 387 445 11,000 -1,260 Descending Houston Center
07:14PM 30.2764 -95.9297 140° Southeast 333 383 9,800 -1,440 Descending Houston Center
07:15PM 30.2158 -95.8669 138° Southeast 303 349 8,100 -1,740 Descending Houston Center
07:16PM 30.1589 -95.8025 136° Southeast 292 336 6,300 -1,500 Descending Houston Center
07:17PM 30.1028 -95.7394 136° Southeast 283 326 5,100 -660 Descending Houston Center
07:18PM 30.0403 -95.6664 135° Southeast 268 308 5,000 -540 Descending Houston Center
07:19PM 29.9894 -95.6058 134° Southeast 266 306 4,100 -900 Descending Houston Center